createdAt,value
2018-05-14T00:00:10.827Z,1012.62
2018-05-14T00:01:19.689Z,1012.61
2018-05-14T00:02:28.555Z,1012.63
2018-05-14T00:03:37.829Z,1012.63
2018-05-14T00:04:46.640Z,1012.62
2018-05-14T00:05:55.503Z,1012.6
2018-05-14T00:07:04.366Z,1012.61
2018-05-14T00:08:13.226Z,1012.6
2018-05-14T00:09:22.088Z,1012.57
2018-05-14T00:10:31.228Z,1012.58
2018-05-14T00:11:40.139Z,1012.57
2018-05-14T00:12:48.999Z,1012.52
2018-05-14T00:13:57.860Z,1012.55
2018-05-14T00:15:06.723Z,1012.5
2018-05-14T00:16:15.582Z,1012.54
2018-05-14T00:17:24.873Z,1012.49
2018-05-14T00:18:33.740Z,1012.47
2018-05-14T00:19:42.601Z,1012.47
2018-05-14T00:20:51.744Z,1012.46
2018-05-14T00:22:00.610Z,1012.5
2018-05-14T00:23:09.616Z,1012.48
2018-05-14T00:24:18.477Z,1012.42
2018-05-14T00:25:27.338Z,1012.44
2018-05-14T00:26:36.201Z,1012.47
2018-05-14T00:27:45.350Z,1012.46
2018-05-14T00:28:54.209Z,1012.42
2018-05-14T00:30:03.068Z,1012.48
2018-05-14T00:31:11.928Z,1012.46
2018-05-14T00:32:20.798Z,1012.45
2018-05-14T00:33:29.935Z,1012.49
2018-05-14T00:34:38.900Z,1012.49
2018-05-14T00:35:47.758Z,1012.5
2018-05-14T00:36:56.621Z,1012.49
2018-05-14T00:38:05.543Z,1012.46
2018-05-14T00:39:14.405Z,1012.5
2018-05-14T00:40:23.267Z,1012.49
2018-05-14T00:41:32.127Z,1012.47
2018-05-14T00:42:40.991Z,1012.51
2018-05-14T00:43:50.135Z,1012.49
2018-05-14T00:44:58.996Z,1012.55
2018-05-14T00:46:07.911Z,1012.53
2018-05-14T00:47:17.054Z,1012.56
2018-05-14T00:48:26.196Z,1012.53
2018-05-14T00:49:35.059Z,1012.53
2018-05-14T00:50:43.919Z,1012.49
2018-05-14T00:51:52.779Z,1012.53
2018-05-14T00:53:02.191Z,1012.47
2018-05-14T00:54:11.054Z,1012.5
2018-05-14T00:55:20.188Z,1012.51
2018-05-14T00:56:29.052Z,1012.49
2018-05-14T00:57:38.010Z,1012.49
2018-05-14T00:58:47.172Z,1012.51
2018-05-14T00:59:56.032Z,1012.53
2018-05-14T01:01:04.891Z,1012.51
2018-05-14T01:02:13.752Z,1012.54
2018-05-14T01:03:22.662Z,1012.55
2018-05-14T01:04:31.524Z,1012.6
2018-05-14T01:05:40.938Z,1012.58
2018-05-14T01:06:49.799Z,1012.59
2018-05-14T01:07:58.657Z,1012.59
2018-05-14T01:09:07.873Z,1012.58
2018-05-14T01:10:17.017Z,1012.54
2018-05-14T01:11:26.437Z,1012.55
2018-05-14T01:12:35.300Z,1012.55
2018-05-14T01:13:44.162Z,1012.54
2018-05-14T01:14:53.450Z,1012.54
2018-05-14T01:16:02.310Z,1012.51
2018-05-14T01:17:11.172Z,1012.56
2018-05-14T01:18:20.033Z,1012.56
2018-05-14T01:19:29.175Z,1012.55
2018-05-14T01:20:38.082Z,1012.53
2018-05-14T01:21:46.945Z,1012.52
2018-05-14T01:22:55.805Z,1012.56
2018-05-14T01:24:04.666Z,1012.58
2018-05-14T01:25:13.532Z,1012.57
2018-05-14T01:26:22.915Z,1012.58
2018-05-14T01:27:31.777Z,1012.57
2018-05-14T01:28:40.636Z,1012.55
2018-05-14T01:29:49.502Z,1012.56
2018-05-14T01:30:58.641Z,1012.55
2018-05-14T01:32:07.778Z,1012.54
2018-05-14T01:33:16.637Z,1012.54
2018-05-14T01:34:25.509Z,1012.57
2018-05-14T01:35:34.359Z,1012.58
2018-05-14T01:36:43.220Z,1012.53
2018-05-14T01:37:52.128Z,1012.58
2018-05-14T01:39:01.264Z,1012.58
2018-05-14T01:40:10.124Z,1012.59
2018-05-14T01:41:18.988Z,1012.58
2018-05-14T01:42:28.413Z,1012.56
2018-05-14T01:43:37.623Z,1012.58
2018-05-14T01:44:46.482Z,1012.58
2018-05-14T01:45:55.380Z,1012.61
2018-05-14T01:47:04.205Z,1012.6
2018-05-14T01:48:13.062Z,1012.6
2018-05-14T01:49:22.171Z,1012.62
2018-05-14T01:50:31.033Z,1012.63
2018-05-14T01:51:39.892Z,1012.6
2018-05-14T01:52:48.752Z,1012.58
2018-05-14T01:53:57.616Z,1012.62
2018-05-14T01:55:06.626Z,1012.59
2018-05-14T01:56:15.488Z,1012.64
2018-05-14T01:57:24.634Z,1012.62
2018-05-14T01:58:33.496Z,1012.65
2018-05-14T01:59:42.357Z,1012.65
2018-05-14T02:00:51.364Z,1012.67
2018-05-14T02:02:00.787Z,1012.68
2018-05-14T02:03:09.645Z,1012.68
2018-05-14T02:04:18.505Z,1012.67
2018-05-14T02:05:27.365Z,1012.7
2018-05-14T02:06:36.577Z,1012.68
2018-05-14T02:07:45.440Z,1012.67
2018-05-14T02:08:54.303Z,1012.69
2018-05-14T02:10:03.445Z,1012.69
2018-05-14T02:11:12.587Z,1012.7
2018-05-14T02:12:22.360Z,1012.68
2018-05-14T02:13:31.222Z,1012.68
2018-05-14T02:14:40.364Z,1012.69
2018-05-14T02:15:49.496Z,1012.72
2018-05-14T02:16:58.352Z,1012.7
2018-05-14T02:18:07.540Z,1012.73
2018-05-14T02:19:16.401Z,1012.75
2018-05-14T02:20:25.259Z,1012.71
2018-05-14T02:21:34.403Z,1012.72
2018-05-14T02:22:43.265Z,1012.74
2018-05-14T02:23:52.135Z,1012.75
2018-05-14T02:25:01.273Z,1012.73
2018-05-14T02:26:10.412Z,1012.74
2018-05-14T02:27:19.273Z,1012.73
2018-05-14T02:28:28.131Z,1012.75
2018-05-14T02:29:37.052Z,1012.72
2018-05-14T02:30:45.906Z,1012.73
2018-05-14T02:31:55.319Z,1012.72
2018-05-14T02:33:04.185Z,1012.77
2018-05-14T02:34:13.043Z,1012.75
2018-05-14T02:35:22.340Z,1012.78
2018-05-14T02:36:31.480Z,1012.8
2018-05-14T02:37:40.623Z,1012.76
2018-05-14T02:38:49.775Z,1012.76
2018-05-14T02:39:58.632Z,1012.81
2018-05-14T02:41:07.775Z,1012.84
2018-05-14T02:42:16.639Z,1012.82
2018-05-14T02:43:25.776Z,1012.84
2018-05-14T02:44:34.638Z,1012.87
2018-05-14T02:45:43.777Z,1012.85
2018-05-14T02:46:52.919Z,1012.84
2018-05-14T02:48:01.784Z,1012.87
2018-05-14T02:49:10.643Z,1012.87
2018-05-14T02:50:20.056Z,1012.87
2018-05-14T02:51:28.917Z,1012.86
2018-05-14T02:52:37.930Z,1012.88
2018-05-14T02:53:47.356Z,1012.86
2018-05-14T02:54:56.220Z,1012.85
2018-05-14T02:56:05.357Z,1012.84
2018-05-14T02:57:14.221Z,1012.87
2018-05-14T02:58:23.415Z,1012.86
2018-05-14T02:59:32.838Z,1012.85
2018-05-14T03:00:42.258Z,1012.88
2018-05-14T03:01:51.119Z,1012.84
2018-05-14T03:02:59.980Z,1012.8
2018-05-14T03:04:09.374Z,1012.81
2018-05-14T03:05:18.235Z,1012.87
2018-05-14T03:06:27.650Z,1012.8
2018-05-14T03:07:36.793Z,1012.8
2018-05-14T03:08:45.656Z,1012.81
2018-05-14T03:09:54.806Z,1012.78
2018-05-14T03:11:04.228Z,1012.76
2018-05-14T03:12:13.089Z,1012.8
2018-05-14T03:13:21.948Z,1012.8
2018-05-14T03:14:30.807Z,1012.84
2018-05-14T03:15:39.821Z,1012.84
2018-05-14T03:16:48.689Z,1012.85
2018-05-14T03:17:57.548Z,1012.79
2018-05-14T03:19:06.409Z,1012.83
2018-05-14T03:20:15.271Z,1012.79
2018-05-14T03:21:24.377Z,1012.82
2018-05-14T03:22:33.236Z,1012.85
2018-05-14T03:23:42.094Z,1012.78
2018-05-14T03:24:51.045Z,1012.82
2018-05-14T03:25:59.813Z,1012.87
2018-05-14T03:27:08.825Z,1012.87
2018-05-14T03:28:17.685Z,1012.88
2018-05-14T03:29:26.545Z,1012.9
2018-05-14T03:30:35.405Z,1012.89
2018-05-14T03:31:44.547Z,1012.89
2018-05-14T03:32:54.049Z,1012.9
2018-05-14T03:34:02.909Z,1012.92
2018-05-14T03:35:11.772Z,1012.93
2018-05-14T03:36:20.628Z,1012.93
2018-05-14T03:37:29.487Z,1012.94
2018-05-14T03:38:38.396Z,1012.95
2018-05-14T03:39:47.534Z,1012.95
2018-05-14T03:40:56.395Z,1012.94
2018-05-14T03:42:05.252Z,1012.96
2018-05-14T03:43:14.115Z,1012.93
2018-05-14T03:44:23.247Z,1012.99
2018-05-14T03:45:32.109Z,1012.99
2018-05-14T03:46:40.973Z,1013
2018-05-14T03:47:49.834Z,1012.98
2018-05-14T03:48:58.692Z,1013.01
2018-05-14T03:50:08.215Z,1013.02
2018-05-14T03:51:17.075Z,1013.03
2018-05-14T03:52:25.936Z,1013.08
2018-05-14T03:53:34.793Z,1013.06
2018-05-14T03:54:43.659Z,1013.06
2018-05-14T03:55:52.565Z,1013.08
2018-05-14T03:57:01.425Z,1013.11
2018-05-14T03:58:10.559Z,1013.13
2018-05-14T03:59:19.421Z,1013.12
2018-05-14T04:00:28.853Z,1013.19
2018-05-14T04:01:38.063Z,1013.15
2018-05-14T04:02:46.924Z,1013.15
2018-05-14T04:03:56.063Z,1013.16
2018-05-14T04:05:04.927Z,1013.14
2018-05-14T04:06:13.788Z,1013.14
2018-05-14T04:07:23.200Z,1013.15
2018-05-14T04:08:32.148Z,1013.14
2018-05-14T04:09:41.207Z,1013.2
2018-05-14T04:10:50.064Z,1013.2
2018-05-14T04:11:58.925Z,1013.19
2018-05-14T04:13:08.237Z,1013.12
2018-05-14T04:14:17.371Z,1013.18
2018-05-14T04:15:26.234Z,1013.21
2018-05-14T04:16:35.113Z,1013.21
2018-05-14T04:17:44.277Z,1013.24
2018-05-14T04:18:53.238Z,1013.24
2018-05-14T04:20:02.098Z,1013.24
2018-05-14T04:21:11.232Z,1013.26
2018-05-14T04:22:20.094Z,1013.25
2018-05-14T04:23:28.954Z,1013.34
2018-05-14T04:24:37.814Z,1013.32
2018-05-14T04:25:46.674Z,1013.38
2018-05-14T04:26:55.538Z,1013.33
2018-05-14T04:28:04.398Z,1013.39
2018-05-14T04:29:13.257Z,1013.36
2018-05-14T04:30:22.208Z,1013.4
2018-05-14T04:31:31.262Z,1013.41
2018-05-14T04:32:40.124Z,1013.42
2018-05-14T04:33:48.984Z,1013.43
2018-05-14T04:34:58.125Z,1013.44
2018-05-14T04:36:07.419Z,1013.45
2018-05-14T04:37:16.281Z,1013.41
2018-05-14T04:38:25.149Z,1013.47
2018-05-14T04:39:34.287Z,1013.46
2018-05-14T04:40:43.147Z,1013.45
2018-05-14T04:41:52.058Z,1013.43
2018-05-14T04:43:00.919Z,1013.49
2018-05-14T04:44:09.780Z,1013.48
2018-05-14T04:45:18.643Z,1013.54
2018-05-14T04:46:27.781Z,1013.44
2018-05-14T04:47:36.793Z,1013.51
2018-05-14T04:48:45.651Z,1013.5
2018-05-14T04:49:54.523Z,1013.55
2018-05-14T04:51:03.419Z,1013.54
2018-05-14T04:52:12.325Z,1013.53
2018-05-14T04:53:21.293Z,1013.56
2018-05-14T04:54:30.153Z,1013.54
2018-05-14T04:55:39.295Z,1013.57
2018-05-14T04:56:48.155Z,1013.6
2018-05-14T04:57:57.020Z,1013.57
2018-05-14T04:59:06.259Z,1013.58
2018-05-14T05:00:15.448Z,1013.56
2018-05-14T05:01:24.307Z,1013.57
2018-05-14T05:02:33.446Z,1013.59
2018-05-14T05:03:42.305Z,1013.58
2018-05-14T05:04:51.517Z,1013.59
2018-05-14T05:06:00.659Z,1013.58
2018-05-14T05:07:09.527Z,1013.61
2018-05-14T05:08:18.379Z,1013.62
2018-05-14T05:09:27.241Z,1013.63
2018-05-14T05:10:36.252Z,1013.58
2018-05-14T05:11:45.113Z,1013.62
2018-05-14T05:12:53.975Z,1013.61
2018-05-14T05:14:02.835Z,1013.68
2018-05-14T05:15:11.698Z,1013.66
2018-05-14T05:16:21.184Z,1013.71
2018-05-14T05:17:30.324Z,1013.63
2018-05-14T05:18:39.189Z,1013.69
2018-05-14T05:19:48.053Z,1013.71
2018-05-14T05:20:56.919Z,1013.75
2018-05-14T05:22:06.106Z,1013.73
2018-05-14T05:23:15.243Z,1013.74
2018-05-14T05:24:24.108Z,1013.7
2018-05-14T05:25:32.971Z,1013.76
2018-05-14T05:26:41.830Z,1013.74
2018-05-14T05:27:51.116Z,1013.72
2018-05-14T05:28:59.982Z,1013.74
2018-05-14T05:30:08.841Z,1013.72
2018-05-14T05:31:17.989Z,1013.72
2018-05-14T05:32:27.423Z,1013.72
2018-05-14T05:33:36.998Z,1013.73
2018-05-14T05:34:45.861Z,1013.75
2018-05-14T05:35:55.295Z,1013.75
2018-05-14T05:37:04.157Z,1013.76
2018-05-14T05:38:13.018Z,1013.78
2018-05-14T05:39:22.029Z,1013.77
2018-05-14T05:40:31.175Z,1013.83
2018-05-14T05:41:40.037Z,1013.85
2018-05-14T05:42:48.899Z,1013.86
2018-05-14T05:43:57.770Z,1013.84
2018-05-14T05:45:07.114Z,1013.88
2018-05-14T05:46:16.634Z,1013.87
2018-05-14T05:47:25.494Z,1013.84
2018-05-14T05:48:34.355Z,1013.87
2018-05-14T05:49:43.220Z,1013.85
2018-05-14T05:50:52.134Z,1013.88
2018-05-14T05:52:01.269Z,1013.9
2018-05-14T05:53:10.129Z,1013.9
2018-05-14T05:54:19.275Z,1013.92
2018-05-14T05:55:28.135Z,1013.92
2018-05-14T05:56:37.147Z,1013.94
2018-05-14T05:57:46.313Z,1013.92
2018-05-14T05:58:55.476Z,1013.91
2018-05-14T06:00:04.336Z,1013.88
2018-05-14T06:01:13.275Z,1013.84
2018-05-14T06:02:22.206Z,1013.88
2018-05-14T06:03:31.067Z,1013.91
2018-05-14T06:04:39.931Z,1013.91
2018-05-14T06:05:49.633Z,1013.87
2018-05-14T06:06:58.496Z,1013.9
2018-05-14T06:08:07.991Z,1013.92
2018-05-14T06:09:17.138Z,1013.92
2018-05-14T06:10:25.998Z,1013.95
2018-05-14T06:11:34.860Z,1013.95
2018-05-14T06:12:43.727Z,1013.95
2018-05-14T06:13:52.739Z,1013.98
2018-05-14T06:15:01.620Z,1013.98
2018-05-14T06:16:10.486Z,1013.98
2018-05-14T06:17:19.904Z,1013.94
2018-05-14T06:18:29.042Z,1013.96
2018-05-14T06:19:38.254Z,1013.98
2018-05-14T06:20:47.124Z,1013.98
2018-05-14T06:21:55.980Z,1013.96
2018-05-14T06:23:05.125Z,1013.94
2018-05-14T06:24:14.268Z,1013.95
2018-05-14T06:25:23.279Z,1014.03
2018-05-14T06:26:32.146Z,1013.99
2018-05-14T06:27:41.278Z,1014.02
2018-05-14T06:28:50.707Z,1014
2018-05-14T06:29:59.567Z,1014.02
2018-05-14T06:31:08.708Z,1014
2018-05-14T06:32:17.868Z,1014.05
2018-05-14T06:33:27.006Z,1013.95
2018-05-14T06:34:35.867Z,1014.04
2018-05-14T06:35:44.758Z,1014.05
2018-05-14T06:36:53.696Z,1014.05
2018-05-14T06:38:02.559Z,1013.99
2018-05-14T06:39:11.979Z,1014.04
2018-05-14T06:40:21.402Z,1014.03
2018-05-14T06:41:30.266Z,1014.07
2018-05-14T06:42:39.840Z,1014.1
2018-05-14T06:43:48.702Z,1014.08
2018-05-14T06:44:57.567Z,1014.09
2018-05-14T06:46:06.703Z,1014.1
2018-05-14T06:47:15.567Z,1014.07
2018-05-14T06:48:24.434Z,1014.08
2018-05-14T06:49:33.570Z,1014.05
2018-05-14T06:50:42.431Z,1014.11
2018-05-14T06:51:51.294Z,1014.1
2018-05-14T06:53:00.435Z,1014.13
2018-05-14T06:54:09.913Z,1014.12
2018-05-14T06:55:19.054Z,1014.1
2018-05-14T06:56:27.920Z,1014.13
2018-05-14T06:57:37.342Z,1014.14
2018-05-14T06:58:46.204Z,1014.11
2018-05-14T06:59:55.174Z,1014.13
2018-05-14T07:01:04.029Z,1014.13
2018-05-14T07:02:13.446Z,1014.18
2018-05-14T07:03:22.309Z,1014.17
2018-05-14T07:04:31.447Z,1014.16
2018-05-14T07:05:40.361Z,1014.17
2018-05-14T07:06:49.223Z,1014.17
2018-05-14T07:07:58.088Z,1014.2
2018-05-14T07:09:06.949Z,1014.13
2018-05-14T07:10:16.088Z,1014.15
2018-05-14T07:11:25.102Z,1014.15
2018-05-14T07:12:34.336Z,1014.21
2018-05-14T07:13:43.198Z,1014.21
2018-05-14T07:14:52.341Z,1014.18
2018-05-14T07:16:01.204Z,1014.16
2018-05-14T07:17:10.113Z,1014.19
2018-05-14T07:18:18.979Z,1014.18
2018-05-14T07:19:27.847Z,1014.2
2018-05-14T07:20:36.702Z,1014.17
2018-05-14T07:21:45.568Z,1014.18
2018-05-14T07:22:54.680Z,1014.19
2018-05-14T07:24:03.822Z,1014.21
2018-05-14T07:25:12.684Z,1014.21
2018-05-14T07:26:21.826Z,1014.22
2018-05-14T07:27:30.968Z,1014.18
2018-05-14T07:28:40.348Z,1014.19
2018-05-14T07:29:49.123Z,1014.15
2018-05-14T07:30:58.271Z,1014.17
2018-05-14T07:32:07.126Z,1014.19
2018-05-14T07:33:15.989Z,1014.2
2018-05-14T07:34:25.203Z,1014.17
2018-05-14T07:35:34.065Z,1014.2
2018-05-14T07:36:42.934Z,1014.16
2018-05-14T07:37:52.071Z,1014.22
2018-05-14T07:39:00.929Z,1014.25
2018-05-14T07:40:10.329Z,1014.25
2018-05-14T07:41:19.197Z,1014.26
2018-05-14T07:42:28.055Z,1014.24
2018-05-14T07:43:36.919Z,1014.25
2018-05-14T07:44:45.782Z,1014.25
2018-05-14T07:45:54.995Z,1014.23
2018-05-14T07:47:04.190Z,1014.28
2018-05-14T07:48:13.051Z,1014.28
2018-05-14T07:49:21.908Z,1014.25
2018-05-14T07:50:30.776Z,1014.31
2018-05-14T07:51:40.013Z,1014.31
2018-05-14T07:52:49.153Z,1014.3
2018-05-14T07:53:58.018Z,1014.29
2018-05-14T07:55:07.160Z,1014.35
2018-05-14T07:56:16.025Z,1014.32
2018-05-14T07:57:24.936Z,1014.36
2018-05-14T07:58:33.800Z,1014.33
2018-05-14T07:59:42.664Z,1014.33
2018-05-14T08:00:51.809Z,1014.33
2018-05-14T08:02:00.672Z,1014.32
2018-05-14T08:03:09.816Z,1014.34
2018-05-14T08:04:18.676Z,1014.34
2018-05-14T08:05:27.822Z,1014.31
2018-05-14T08:06:36.697Z,1014.36
2018-05-14T08:07:45.564Z,1014.32
2018-05-14T08:08:54.474Z,1014.34
2018-05-14T08:10:03.339Z,1014.34
2018-05-14T08:11:12.202Z,1014.32
2018-05-14T08:12:21.622Z,1014.35
2018-05-14T08:13:30.764Z,1014.35
2018-05-14T08:14:39.779Z,1014.35
2018-05-14T08:15:49.199Z,1014.39
2018-05-14T08:16:58.067Z,1014.34
2018-05-14T08:18:06.926Z,1014.35
2018-05-14T08:19:15.796Z,1014.36
2018-05-14T08:20:25.013Z,1014.36
2018-05-14T08:21:33.873Z,1014.36
2018-05-14T08:22:43.019Z,1014.33
2018-05-14T08:23:51.880Z,1014.36
2018-05-14T08:25:00.747Z,1014.34
2018-05-14T08:26:10.343Z,1014.35
2018-05-14T08:27:19.484Z,1014.35
2018-05-14T08:28:28.628Z,1014.39
2018-05-14T08:29:37.493Z,1014.38
2018-05-14T08:30:46.638Z,1014.32
2018-05-14T08:31:55.649Z,1014.34
2018-05-14T08:33:04.512Z,1014.37
2018-05-14T08:34:13.372Z,1014.35
2018-05-14T08:35:22.238Z,1014.34
2018-05-14T08:36:31.106Z,1014.34
2018-05-14T08:37:40.119Z,1014.37
2018-05-14T08:38:48.982Z,1014.36
2018-05-14T08:39:58.129Z,1014.34
2018-05-14T08:41:06.990Z,1014.38
2018-05-14T08:42:15.856Z,1014.36
2018-05-14T08:43:25.337Z,1014.37
2018-05-14T08:44:34.479Z,1014.38
2018-05-14T08:45:43.343Z,1014.37
2018-05-14T08:46:52.206Z,1014.38
2018-05-14T08:48:01.406Z,1014.39
2018-05-14T08:49:10.265Z,1014.45
2018-05-14T08:50:19.129Z,1014.43
2018-05-14T08:51:27.993Z,1014.42
2018-05-14T08:52:36.859Z,1014.45
2018-05-14T08:53:45.723Z,1014.4
2018-05-14T08:54:54.844Z,1014.44
2018-05-14T08:56:03.711Z,1014.41
2018-05-14T08:57:12.578Z,1014.41
2018-05-14T08:58:21.445Z,1014.43
2018-05-14T08:59:30.587Z,1014.42
2018-05-14T09:00:40.060Z,1014.42
2018-05-14T09:01:49.276Z,1014.4
2018-05-14T09:02:58.469Z,1014.43
2018-05-14T09:04:07.611Z,1014.42
2018-05-14T09:05:16.758Z,1014.41
2018-05-14T09:06:25.777Z,1014.42
2018-05-14T09:07:34.922Z,1014.46
2018-05-14T09:08:44.098Z,1014.41
2018-05-14T09:09:53.326Z,1014.42
2018-05-14T09:11:02.485Z,1014.41
2018-05-14T09:12:11.597Z,1014.42
2018-05-14T09:13:20.459Z,1014.39
2018-05-14T09:14:29.601Z,1014.37
2018-05-14T09:15:38.464Z,1014.39
2018-05-14T09:16:47.327Z,1014.35
2018-05-14T09:17:56.570Z,1014.35
2018-05-14T09:19:05.436Z,1014.34
2018-05-14T09:20:14.578Z,1014.32
2018-05-14T09:21:23.721Z,1014.33
2018-05-14T09:22:32.585Z,1014.31
2018-05-14T09:23:42.059Z,1014.36
2018-05-14T09:24:50.928Z,1014.38
2018-05-14T09:25:59.794Z,1014.4
2018-05-14T09:27:08.939Z,1014.39
2018-05-14T09:28:17.812Z,1014.4
2018-05-14T09:29:26.769Z,1014.37
2018-05-14T09:30:35.914Z,1014.36
2018-05-14T09:31:44.783Z,1014.36
2018-05-14T09:32:53.927Z,1014.33
2018-05-14T09:34:02.791Z,1014.33
2018-05-14T09:35:11.754Z,1014.38
2018-05-14T09:36:20.898Z,1014.38
2018-05-14T09:37:29.771Z,1014.41
2018-05-14T09:38:38.629Z,1014.4
2018-05-14T09:39:47.495Z,1014.36
2018-05-14T09:40:56.710Z,1014.4
2018-05-14T09:42:05.852Z,1014.4
2018-05-14T09:43:14.725Z,1014.44
2018-05-14T09:44:24.208Z,1014.39
2018-05-14T09:45:33.015Z,1014.41
2018-05-14T09:46:42.229Z,1014.37
2018-05-14T09:47:51.096Z,1014.39
2018-05-14T09:49:00.242Z,1014.41
2018-05-14T09:50:09.384Z,1014.41
2018-05-14T09:51:18.250Z,1014.39
2018-05-14T09:52:27.216Z,1014.41
2018-05-14T09:53:36.081Z,1014.34
2018-05-14T09:54:44.967Z,1014.32
2018-05-14T09:55:53.819Z,1014.33
2018-05-14T09:57:02.969Z,1014.35
2018-05-14T09:58:11.880Z,1014.32
2018-05-14T09:59:20.746Z,1014.33
2018-05-14T10:00:29.613Z,1014.31
2018-05-14T10:01:38.483Z,1014.3
2018-05-14T10:02:47.625Z,1014.31
2018-05-14T10:03:56.490Z,1014.31
2018-05-14T10:05:05.357Z,1014.26
2018-05-14T10:06:14.223Z,1014.26
2018-05-14T10:07:23.096Z,1014.25
2018-05-14T10:08:31.962Z,1014.25
2018-05-14T10:09:41.207Z,1014.27
2018-05-14T10:10:50.635Z,1014.25
2018-05-14T10:11:59.502Z,1014.31
2018-05-14T10:13:08.771Z,1014.36
2018-05-14T10:14:17.798Z,1014.33
2018-05-14T10:15:26.988Z,1014.42
2018-05-14T10:16:35.855Z,1014.34
2018-05-14T10:17:44.720Z,1014.34
2018-05-14T10:18:53.674Z,1014.43
2018-05-14T10:20:02.457Z,1014.41
2018-05-14T10:21:11.323Z,1014.41
2018-05-14T10:22:20.186Z,1014.4
2018-05-14T10:23:29.053Z,1014.46
2018-05-14T10:24:37.993Z,1014.43
2018-05-14T10:25:47.203Z,1014.39
2018-05-14T10:26:56.419Z,1014.38
2018-05-14T10:28:05.287Z,1014.34
2018-05-14T10:29:14.158Z,1014.35
2018-05-14T10:30:23.298Z,1014.32
2018-05-14T10:31:32.165Z,1014.34
2018-05-14T10:32:41.082Z,1014.35
2018-05-14T10:33:49.949Z,1014.29
2018-05-14T10:34:58.817Z,1014.27
2018-05-14T10:36:07.683Z,1014.33
2018-05-14T10:37:17.117Z,1014.3
2018-05-14T10:38:25.982Z,1014.29
2018-05-14T10:39:34.849Z,1014.35
2018-05-14T10:40:43.772Z,1014.36
2018-05-14T10:41:53.055Z,1014.34
2018-05-14T10:43:01.927Z,1014.29
2018-05-14T10:44:10.895Z,1014.26
2018-05-14T10:45:20.053Z,1014.25
2018-05-14T10:46:29.195Z,1014.25
2018-05-14T10:47:38.343Z,1014.28
2018-05-14T10:48:47.209Z,1014.3
2018-05-14T10:49:56.077Z,1014.34
2018-05-14T10:51:05.231Z,1014.35
2018-05-14T10:52:14.101Z,1014.39
2018-05-14T10:53:22.969Z,1014.35
2018-05-14T10:54:32.113Z,1014.38
2018-05-14T10:55:41.232Z,1014.37
2018-05-14T10:56:50.099Z,1014.33
2018-05-14T10:57:59.246Z,1014.33
2018-05-14T10:59:08.126Z,1014.35
2018-05-14T11:00:16.990Z,1014.38
2018-05-14T11:01:26.187Z,1014.35
2018-05-14T11:02:35.056Z,1014.37
2018-05-14T11:03:44.201Z,1014.35
2018-05-14T11:04:53.345Z,1014.29
2018-05-14T11:06:02.213Z,1014.31
2018-05-14T11:07:11.231Z,1014.32
2018-05-14T11:08:20.376Z,1014.25
2018-05-14T11:09:29.243Z,1014.28
2018-05-14T11:10:38.128Z,1014.31
2018-05-14T11:11:46.977Z,1014.27
2018-05-14T11:12:56.174Z,1014.25
2018-05-14T11:14:05.038Z,1014.3
2018-05-14T11:15:13.905Z,1014.26
2018-05-14T11:16:23.052Z,1014.24
2018-05-14T11:17:32.205Z,1014.29
2018-05-14T11:18:41.136Z,1014.26
2018-05-14T11:19:49.989Z,1014.33
2018-05-14T11:20:59.139Z,1014.36
2018-05-14T11:22:08.006Z,1014.27
2018-05-14T11:23:16.874Z,1014.3
2018-05-14T11:24:26.019Z,1014.33
2018-05-14T11:25:34.886Z,1014.3
2018-05-14T11:26:43.753Z,1014.29
2018-05-14T11:27:52.647Z,1014.4
2018-05-14T11:29:01.489Z,1014.31
2018-05-14T11:30:10.405Z,1014.3
2018-05-14T11:31:19.278Z,1014.31
2018-05-14T11:32:28.138Z,1014.33
2018-05-14T11:33:37.004Z,1014.35
2018-05-14T11:34:45.873Z,1014.28
2018-05-14T11:35:54.897Z,1014.34
2018-05-14T11:37:04.040Z,1014.35
2018-05-14T11:38:12.907Z,1014.29
2018-05-14T11:39:22.056Z,1014.32
2018-05-14T11:40:31.760Z,1014.3
2018-05-14T11:41:40.978Z,1014.27
2018-05-14T11:42:49.847Z,1014.27
2018-05-14T11:43:58.721Z,1014.33
2018-05-14T11:45:07.585Z,1014.37
2018-05-14T11:46:16.453Z,1014.32
2018-05-14T11:47:25.478Z,1014.37
2018-05-14T11:48:34.339Z,1014.31
2018-05-14T11:49:43.207Z,1014.32
2018-05-14T11:50:52.181Z,1014.34
2018-05-14T11:52:00.956Z,1014.4
2018-05-14T11:53:10.157Z,1014.4
2018-05-14T11:54:19.321Z,1014.38
2018-05-14T11:55:28.473Z,1014.36
2018-05-14T11:56:37.411Z,1014.4
2018-05-14T11:57:46.505Z,1014.32
2018-05-14T11:58:55.702Z,1014.34
2018-05-14T12:00:04.851Z,1014.34
2018-05-14T12:01:13.723Z,1014.35
2018-05-14T12:02:22.877Z,1014.45
2018-05-14T12:03:31.748Z,1014.43
2018-05-14T12:04:40.774Z,1014.36
2018-05-14T12:05:49.923Z,1014.41
2018-05-14T12:06:59.069Z,1014.33
2018-05-14T12:08:08.219Z,1014.35
2018-05-14T12:09:17.090Z,1014.29
2018-05-14T12:10:26.114Z,1014.25
2018-05-14T12:11:34.988Z,1014.24
2018-05-14T12:12:43.863Z,1014.25
2018-05-14T12:13:53.017Z,1014.35
2018-05-14T12:15:01.888Z,1014.34
2018-05-14T12:16:11.036Z,1014.35
2018-05-14T12:17:20.500Z,1014.34
2018-05-14T12:18:29.368Z,1014.36
2018-05-14T12:19:38.240Z,1014.31
2018-05-14T12:20:47.113Z,1014.34
2018-05-14T12:21:56.135Z,1014.35
2018-05-14T12:23:05.007Z,1014.33
2018-05-14T12:24:13.881Z,1014.32
2018-05-14T12:25:23.049Z,1014.27
2018-05-14T12:26:31.931Z,1014.23
2018-05-14T12:27:40.906Z,1014.3
2018-05-14T12:28:49.783Z,1014.28
2018-05-14T12:29:58.656Z,1014.31
2018-05-14T12:31:07.528Z,1014.39
2018-05-14T12:32:16.404Z,1014.3
2018-05-14T12:33:25.276Z,1014.39
2018-05-14T12:34:34.152Z,1014.32
2018-05-14T12:35:43.323Z,1014.35
2018-05-14T12:36:52.749Z,1014.34
2018-05-14T12:38:01.625Z,1014.28
2018-05-14T12:39:10.840Z,1014.33
2018-05-14T12:40:19.711Z,1014.28
2018-05-14T12:41:28.867Z,1014.32
2018-05-14T12:42:37.744Z,1014.4
2018-05-14T12:43:46.619Z,1014.38
2018-05-14T12:44:55.597Z,1014.37
2018-05-14T12:46:04.779Z,1014.24
2018-05-14T12:47:14.039Z,1014.24
2018-05-14T12:48:22.913Z,1014.22
2018-05-14T12:49:31.787Z,1014.28
2018-05-14T12:50:40.813Z,1014.4
2018-05-14T12:51:49.975Z,1014.34
2018-05-14T12:52:59.815Z,1014.31
2018-05-14T12:54:08.966Z,1014.39
2018-05-14T12:55:18.119Z,1014.3
2018-05-14T12:56:27.498Z,1014.35
2018-05-14T12:57:36.375Z,1014.36
2018-05-14T12:58:45.251Z,1014.35
2018-05-14T12:59:54.122Z,1014.34
2018-05-14T13:01:03.283Z,1014.32
2018-05-14T13:02:12.591Z,1014.29
2018-05-14T13:03:21.469Z,1014.29
2018-05-14T13:04:30.344Z,1014.4
2018-05-14T13:05:39.219Z,1014.25
2018-05-14T13:06:48.096Z,1014.39
2018-05-14T13:07:57.075Z,1014.41
2018-05-14T13:09:05.954Z,1014.39
2018-05-14T13:10:15.154Z,1014.37
2018-05-14T13:11:23.985Z,1014.25
2018-05-14T13:12:32.868Z,1014.25
2018-05-14T13:13:41.746Z,1014.34
2018-05-14T13:14:51.193Z,1014.44
2018-05-14T13:16:00.071Z,1014.4
2018-05-14T13:17:08.952Z,1014.32
2018-05-14T13:18:18.117Z,1014.31
2018-05-14T13:19:27.095Z,1014.27
2018-05-14T13:20:36.253Z,1014.4
2018-05-14T13:21:45.133Z,1014.41
2018-05-14T13:22:54.008Z,1014.32
2018-05-14T13:24:02.882Z,1014.36
2018-05-14T13:25:11.911Z,1014.36
2018-05-14T13:26:20.905Z,1014.4
2018-05-14T13:27:29.662Z,1014.41
2018-05-14T13:28:38.641Z,1014.38
2018-05-14T13:29:47.529Z,1014.35
2018-05-14T13:30:56.737Z,1014.37
2018-05-14T13:32:05.924Z,1014.45
2018-05-14T13:33:15.160Z,1014.34
2018-05-14T13:34:24.035Z,1014.4
2018-05-14T13:35:33.192Z,1014.41
2018-05-14T13:36:42.394Z,1014.39
2018-05-14T13:37:51.329Z,1014.36
2018-05-14T13:39:00.544Z,1014.35
2018-05-14T13:40:09.417Z,1014.34
2018-05-14T13:41:18.569Z,1014.3
2018-05-14T13:42:27.491Z,1014.38
2018-05-14T13:43:36.638Z,1014.38
2018-05-14T13:44:45.790Z,1014.36
2018-05-14T13:45:54.941Z,1014.37
2018-05-14T13:47:04.093Z,1014.75
2018-05-14T13:48:13.116Z,1014.74
2018-05-14T13:49:22.268Z,1014.73
2018-05-14T13:50:31.139Z,1014.72
2018-05-14T13:51:40.010Z,1014.69
2018-05-14T13:52:49.163Z,1014.76
2018-05-14T13:53:58.138Z,1014.73
2018-05-14T13:55:07.285Z,1014.66
2018-05-14T13:56:16.436Z,1014.62
2018-05-14T13:57:25.364Z,1014.72